Egg Harbor Township, NJ

6:04 AM EDT on March 30, 2015 (GMT -0400)
Millville Municipal | | Change Station
CLOSE
Current Station
Airport
Location: Millville,
Elevation: 82 ft
Nearby Weather Stations

Elev 82 ft 39.37 °N, 75.08 °W | Updated 10 minutes ago

Mostly Cloudy
Mostly Cloudy
36 °F
Feels Like 30 °F
N
7
Wind Variable Wind from South

Today
High -- | Low -- °F
--% Chance of Precip.
Yesterday
High -- | Low -- °F
Precip. -- in
6:46 AM 7:19 PM
Waxing Gibbous, 78% visible
Pressure 29.99 in
Visibility 10.0 miles
Clouds Overcast 9000 ft
Windchill 30 °F
Dew Point 31 °F
Humidity 82%
Rainfall 0.01 in
Snow Depth Not available.
UV 0 out of 12
Pollen 7.00 out of 12
Air Quality Not available.
Flu Activity Not available.
METAR KMIV 300954Z AUTO 19006KT 10SM OVC090 02/M01 A2999 RMK AO2 SLP155 T00221006

More Conditions Fewer Conditions

Pressure 29.99 in
Visibility 10.0 miles
Clouds Overcast 9000 ft
Windchill 30 °F
Dew Point 31 °F
Humidity 82%
Rainfall 0.01 in
Snow Depth Not available.
UV 0 out of 12
Pollen 7.00 out of 12
Air Quality Not available.
Flu Activity Not available.
METAR KMIV 300954Z AUTO 19006KT 10SM OVC090 02/M01 A2999 RMK AO2 SLP155 T00221006

More Conditions Fewer Conditions

Nowcast | as of 5:56 am EDT on March 30, 2015

Into the middle of the morning commute an area of spotty light rain will move through the region. Snow could mix in toward and in the local Philadelphia area while the steadiest rain will be in Delmarva. Temperatures will remain in the mid to upper 30s.

×

10-Day Weather Forecast

Almanac

Astronomy

Mar. 30, 2015 Rise Set
Actual Time
Civil Twilight
Nautical Twilight
Astronomical Twilight
Moon
Length of Visible Light
Length of Day
Tomorrow will be .
, % of the Moon is Illuminated

Today's Extremes

State Highs State Lows

Community

WunderPhotos

Upload Photos

1,809,453 photos uploaded!

WunderBlogs® & News

Nearby

Air Quality

  Air Quality AQ Index Pollutant
Not available.

Snow Depth

Station Depth Elevation

Earthquake Activity

City Distance Mag. Time & Date
Minimum magnitude displayed is 2.5.

Coastal Water Temperatures

Place Temperature

Stations

Nearby Weather Stations

Station Location Temp. Windchill Dew Point Humidity Wind Precip. Elev Updated Type